MSC Lisbon — A8LL9 — position and weather

sailwx.info

Track history (hours):
 
Tides and Currents Weather Stations Pressure Air Temp Water Temp Dewpoint Dewpoint Depression Visibility Wind Speed Wind Dir Waves Ship Positions

MSC Lisbon

Last reported at 2016-May-26 12:00 UTC. Time now 2016-May-27 00:23 UTC.
Position N 34°24' E 022°00'.

Length 336.7 m; beam 45.6 m; draft 15.3 m.

Type: Ship (hazmat cat A). MMSI: 636091276.

Wind from 320 at 17 knots

Waves 1.5 meters (5 feet), 3 second period

Barometer 1014.5 mb
Air temperature 21.0 ° C
Visibility: greater than 5.4 NM
Dewpoint 14.7 ° C
Water temperature 20.1 ° C

Date/timePositionNaut miles runAvg speedWind from/ knotsBaromVisibWave heightAir tempDewpointWater temp
2016-May-26 12:00N 34°24' E 022°00'19117.8 320 / 171014.5 5.4 1.521.014.720.1
2016-May-26 01:17N 35°19' E 018°17'1317.9
2016-May-26 00:33N 35°22' E 018°02'1817.9
2016-May-25 23:33N 35°27' E 017°40'5717.8
2016-May-25 20:20N 35°43' E 016°33'2017.8
2016-May-25 19:12N 35°49' E 016°09'2918.0
2016-May-25 17:33N 35°56' E 015°34'1817.8
2016-May-25 16:34N 35°60' E 015°12'1817.8
2016-May-25 15:33N 36°05' E 014°51'1817.8
2016-May-25 14:33N 36°10' E 014°30'1817.7
2016-May-25 13:33N 36°17' E 014°10'1817.7
2016-May-25 12:33N 36°22' E 013°49'1817.9
2016-May-25 11:33N 36°27' E 013°28'1818.2
2016-May-25 10:33N 36°34' E 013°07'1918.7
2016-May-25 09:33N 36°42' E 012°45'1818.3
2016-May-25 08:33N 36°49' E 012°25'1818.3
2016-May-25 07:33N 36°58' E 012°05'1817.9
2016-May-25 06:33N 37°06' E 011°45'1817.9
2016-May-25 05:33N 37°15' E 011°25'1818.1
2016-May-25 04:33N 37°23' E 011°05'1818.4
2016-May-25 03:33N 37°28' E 010°43'1818.2
2016-May-25 02:32N 37°33' E 010°20'1818.8
2016-May-25 01:33N 37°35' E 009°57'1818.2
2016-May-25 00:32N 37°37' E 009°34'1717.3
2016-May-24 23:33N 37°43' E 009°13'1716.7
2016-May-24 22:33N 37°44' E 008°52'1717.4
2016-May-24 21:33N 37°44' E 008°30'16817.5
2016-May-24 12:00N 37°24' E 005°00'7516.9 100 / 161015.0 5.4 1.021.015.519.1
2016-May-24 07:32N 37°13' E 003°26'1818.2
2016-May-24 06:33N 37°10' E 003°04'1717.5
2016-May-24 05:33N 37°08' E 002°42'1717.4
2016-May-24 04:33N 37°05' E 002°21'1817.6
2016-May-24 03:33N 37°01' E 001°59'1818.1
2016-May-24 02:33N 36°59' E 001°37'1817.6
2016-May-24 01:33N 36°56' E 001°15'3917.3
2016-May-23 23:19N 36°49' E 000°27'1316.9
2016-May-23 22:33N 36°46' E 000°12'1717.0
2016-May-23 21:33N 36°42' W 000°09'1817.2
2016-May-23 20:31N 36°38' W 000°31'1617.1
2016-May-23 19:33N 36°35' W 000°51'12115.9
2016-May-23 12:00N 36°12' W 003°18'9319.6 100 / 211019.5 5.4 1.521.016.718.7
2016-May-23 07:15N 36°00' W 005°12'1319.4
2016-May-23 06:33N 35°57' W 005°28'6318.3
2016-May-23 03:09N 35°59' W 006°45'1417.2
2016-May-23 02:21N 36°01' W 007°02'1417.2
2016-May-23 01:33N 36°03' W 007°19'1817.4
2016-May-23 00:33N 36°07' W 007°40'1917.5
2016-May-22 23:26N 36°10' W 008°04'1517.5
2016-May-22 22:33N 36°13' W 008°23'3717.6
2016-May-22 20:28N 36°22' W 009°07'3417.4
2016-May-22 18:30N 36°35' W 009°46'1111.7
2016-May-22 17:32N 36°43' W 009°56'1 1.1
2016-May-22 16:11N 36°44' W 009°55'1 1.0
2016-May-22 15:11N 36°45' W 009°54'1 1.0
2016-May-22 14:20N 36°46' W 009°54'55 7.7
2016-May-22 07:11N 37°29' W 009°11'1116.7
2016-May-22 06:33N 37°38' W 009°03'1616.7
2016-May-22 05:34N 37°52' W 008°52'4 3.8
2016-May-22 04:33N 37°56' W 008°51'0 0.0
2016-May-22 03:33N 37°56' W 008°51'0 0.0
2016-May-22 02:33N 37°56' W 008°51'0 0.0
2016-May-22 01:33N 37°56' W 008°51'0 0.0
2016-May-22 00:33N 37°56' W 008°51'0 0.0
2016-May-21 23:33N 37°56' W 008°51'0 0.0
2016-May-21 22:33N 37°56' W 008°51'0 0.0
2016-May-21 21:33N 37°56' W 008°51'0 0.0
2016-May-21 20:33N 37°56' W 008°51'0 0.0
2016-May-21 19:33N 37°56' W 008°51'0 0.0
2016-May-21 18:33N 37°56' W 008°51'0 0.0
2016-May-21 17:33N 37°56' W 008°51'0 0.0
2016-May-21 16:33N 37°56' W 008°51'0 0.0
2016-May-21 15:33N 37°56' W 008°51'0 0.0
2016-May-21 14:33N 37°56' W 008°51'0 0.0
2016-May-21 13:30N 37°56' W 008°51'0 0.0
2016-May-21 12:33N 37°56' W 008°51'0 0.0
2016-May-21 11:33N 37°56' W 008°51'0 0.0
2016-May-21 10:33N 37°56' W 008°51'0 0.0
2016-May-21 09:33N 37°56' W 008°51'0 0.0
2016-May-21 08:33N 37°56' W 008°51'2 1.9
2016-May-21 07:33N 37°54' W 008°50'1 1.0
2016-May-21 06:33N 37°54' W 008°52'0 0.0
2016-May-21 05:33N 37°54' W 008°52'0 0.1
2016-May-21 04:33N 37°54' W 008°52'0 0.0
2016-May-21 03:33N 37°54' W 008°52'0 0.0
2016-May-21 02:33N 37°54' W 008°52'0 0.1
2016-May-21 01:33N 37°54' W 008°52'0 0.1
2016-May-21 00:33N 37°54' W 008°52'0 0.0
2016-May-20 23:33N 37°54' W 008°52'0 0.0
2016-May-20 22:33N 37°54' W 008°52'0 0.0
2016-May-20 21:33N 37°54' W 008°52'4 4.3
2016-May-20 20:33N 37°54' W 008°57'8 8.2
2016-May-20 19:33N 37°52' W 009°07'8 8.2
2016-May-20 18:33N 37°52' W 009°17'1010.0
2016-May-20 17:33N 37°52' W 009°30'1212.3
2016-May-20 16:33N 37°53' W 009°46'1212.5
2016-May-20 15:33N 37°53' W 010°01'1312.6
2016-May-20 14:33N 37°53' W 010°17'1212.3
2016-May-20 13:33N 37°53' W 010°33'1312.6
2016-May-20 12:31N 37°54' W 010°50'712.5
2016-May-20 12:00N 37°48' W 010°54'3614.2 030 / 171019.0 5.4 1.017.015.416.5
2016-May-20 09:29N 37°54' W 011°38'4111.7
2016-May-20 06:00N 37°54' W 012°30'16113.4 360 / 111022.0 5.4 0.516.012.716.0
2016-May-19 18:00N 37°54' W 015°54'16113.4 350 / 71026.0 5.4 0.520.015.317.0
2016-May-19 06:00N 38°00' W 019°18'18513.8 360 / 51028.010.8 0.518.013.117.0
2016-May-18 16:33N 38°06' W 023°13'1413.6
2016-May-18 15:33N 38°06' W 023°30'1413.5
2016-May-18 14:33N 38°06' W 023°47'1313.4
2016-May-18 13:33N 38°06' W 024°04'1313.5
2016-May-18 12:34N 38°06' W 024°21'712.3
2016-May-18 12:00N 38°06' W 024°30'614.6 330 / 91029.0 2.2 0.519.517.217.0
2016-May-18 11:34N 38°06' W 024°38'1313.2
2016-May-18 10:33N 38°06' W 024°55'1313.3
2016-May-18 09:34N 38°07' W 025°12'1313.5
2016-May-18 08:34N 38°07' W 025°29'1413.8
2016-May-18 07:34N 38°07' W 025°46'1413.5
2016-May-18 06:34N 38°06' W 026°04'1313.2
2016-May-18 05:34N 38°07' W 026°20'1313.3
2016-May-18 04:33N 38°07' W 026°37'1313.1
2016-May-18 03:33N 38°08' W 026°54'1313.5
2016-May-18 02:33N 38°08' W 027°11'1413.5
2016-May-18 01:33N 38°07' W 027°28'1413.5
2016-May-18 00:33N 38°07' W 027°45'1313.3
2016-May-17 23:33N 38°06' W 028°02'1313.5
2016-May-17 22:33N 38°06' W 028°19'1413.7
2016-May-17 21:34N 38°05' W 028°37'1413.9
2016-May-17 20:33N 38°05' W 028°55'5814.3
2016-May-17 16:28N 38°03' W 030°09'1314.6
2016-May-17 15:33N 38°02' W 030°26'1614.9
2016-May-17 14:27N 38°01' W 030°46'3514.2
2016-May-17 12:00N 37°54' W 031°30'9515.8 280 / 101032.010.8 0.521.016.4
2016-May-17 06:00N 37°48' W 033°30'3715.3 1032.010.8 1.517.013.718.0
2016-May-17 03:33N 37°48' W 034°17'1515.0
2016-May-17 02:33N 37°47' W 034°36'1514.7
2016-May-17 01:33N 37°46' W 034°55'1515.4
2016-May-17 00:33N 37°44' W 035°14'814.1
2016-May-17 00:00N 37°42' W 035°24'8614.4 230 / 101033.010.8 1.018.014.818.8
2016-May-16 18:00N 37°30' W 037°12'8714.4 270 / 121031.010.8 1.522.017.519.0
2016-May-16 12:00N 37°18' W 039°00'   220 / 141030.010.8 1.021.016.419.5
Track history (hours):
 
Tides and Currents Weather Stations Pressure Air Temp Water Temp Dewpoint Dewpoint Depression Visibility Wind Speed Wind Dir Waves Ship Positions

MSC Lisbon

Last reported at 2016-May-26 12:00 UTC. Time now 2016-May-27 00:23 UTC.
Position N 34°24' E 022°00'.

Length 336.7 m; beam 45.6 m; draft 15.3 m.

Type: Ship (hazmat cat A). MMSI: 636091276.

Wind from 320 at 17 knots

Waves 1.5 meters (5 feet), 3 second period

Barometer 1014.5 mb
Air temperature 21.0 ° C
Visibility: greater than 5.4 NM
Dewpoint 14.7 ° C
Water temperature 20.1 ° C

Date/timePositionNaut miles runAvg speedWind from/ knotsBaromVisibWave heightAir tempDewpointWater temp
2016-May-26 12:00N 34°24' E 022°00'19117.8 320 / 171014.5 5.4 1.521.014.720.1
2016-May-26 01:17N 35°19' E 018°17'1317.9
2016-May-26 00:33N 35°22' E 018°02'1817.9
2016-May-25 23:33N 35°27' E 017°40'5717.8
2016-May-25 20:20N 35°43' E 016°33'2017.8
2016-May-25 19:12N 35°49' E 016°09'2918.0
2016-May-25 17:33N 35°56' E 015°34'1817.8
2016-May-25 16:34N 35°60' E 015°12'1817.8
2016-May-25 15:33N 36°05' E 014°51'1817.8
2016-May-25 14:33N 36°10' E 014°30'1817.7
2016-May-25 13:33N 36°17' E 014°10'1817.7
2016-May-25 12:33N 36°22' E 013°49'1817.9
2016-May-25 11:33N 36°27' E 013°28'1818.2
2016-May-25 10:33N 36°34' E 013°07'1918.7
2016-May-25 09:33N 36°42' E 012°45'1818.3
2016-May-25 08:33N 36°49' E 012°25'1818.3
2016-May-25 07:33N 36°58' E 012°05'1817.9
2016-May-25 06:33N 37°06' E 011°45'1817.9
2016-May-25 05:33N 37°15' E 011°25'1818.1
2016-May-25 04:33N 37°23' E 011°05'1818.4
2016-May-25 03:33N 37°28' E 010°43'1818.2
2016-May-25 02:32N 37°33' E 010°20'1818.8
2016-May-25 01:33N 37°35' E 009°57'1818.2
2016-May-25 00:32N 37°37' E 009°34'1717.3
2016-May-24 23:33N 37°43' E 009°13'1716.7
2016-May-24 22:33N 37°44' E 008°52'1717.4
2016-May-24 21:33N 37°44' E 008°30'16817.5
2016-May-24 12:00N 37°24' E 005°00'7516.9 100 / 161015.0 5.4 1.021.015.519.1
2016-May-24 07:32N 37°13' E 003°26'1818.2
2016-May-24 06:33N 37°10' E 003°04'1717.5
2016-May-24 05:33N 37°08' E 002°42'1717.4
2016-May-24 04:33N 37°05' E 002°21'1817.6
2016-May-24 03:33N 37°01' E 001°59'1818.1
2016-May-24 02:33N 36°59' E 001°37'1817.6
2016-May-24 01:33N 36°56' E 001°15'3917.3
2016-May-23 23:19N 36°49' E 000°27'1316.9
2016-May-23 22:33N 36°46' E 000°12'1717.0
2016-May-23 21:33N 36°42' W 000°09'1817.2
2016-May-23 20:31N 36°38' W 000°31'1617.1
2016-May-23 19:33N 36°35' W 000°51'12115.9
2016-May-23 12:00N 36°12' W 003°18'9319.6 100 / 211019.5 5.4 1.521.016.718.7
2016-May-23 07:15N 36°00' W 005°12'1319.4
2016-May-23 06:33N 35°57' W 005°28'6318.3
2016-May-23 03:09N 35°59' W 006°45'1417.2
2016-May-23 02:21N 36°01' W 007°02'1417.2
2016-May-23 01:33N 36°03' W 007°19'1817.4
2016-May-23 00:33N 36°07' W 007°40'1917.5
2016-May-22 23:26N 36°10' W 008°04'1517.5
2016-May-22 22:33N 36°13' W 008°23'3717.6
2016-May-22 20:28N 36°22' W 009°07'3417.4
2016-May-22 18:30N 36°35' W 009°46'1111.7
2016-May-22 17:32N 36°43' W 009°56'1 1.1
2016-May-22 16:11N 36°44' W 009°55'1 1.0
2016-May-22 15:11N 36°45' W 009°54'1 1.0
2016-May-22 14:20N 36°46' W 009°54'55 7.7
2016-May-22 07:11N 37°29' W 009°11'1116.7
2016-May-22 06:33N 37°38' W 009°03'1616.7
2016-May-22 05:34N 37°52' W 008°52'4 3.8
2016-May-22 04:33N 37°56' W 008°51'0 0.0
2016-May-22 03:33N 37°56' W 008°51'0 0.0
2016-May-22 02:33N 37°56' W 008°51'0 0.0
2016-May-22 01:33N 37°56' W 008°51'0 0.0
2016-May-22 00:33N 37°56' W 008°51'0 0.0
2016-May-21 23:33N 37°56' W 008°51'0 0.0
2016-May-21 22:33N 37°56' W 008°51'0 0.0
2016-May-21 21:33N 37°56' W 008°51'0 0.0
2016-May-21 20:33N 37°56' W 008°51'0 0.0
2016-May-21 19:33N 37°56' W 008°51'0 0.0
2016-May-21 18:33N 37°56' W 008°51'0 0.0
2016-May-21 17:33N 37°56' W 008°51'0 0.0
2016-May-21 16:33N 37°56' W 008°51'0 0.0
2016-May-21 15:33N 37°56' W 008°51'0 0.0
2016-May-21 14:33N 37°56' W 008°51'0 0.0
2016-May-21 13:30N 37°56' W 008°51'0 0.0
2016-May-21 12:33N 37°56' W 008°51'0 0.0
2016-May-21 11:33N 37°56' W 008°51'0 0.0
2016-May-21 10:33N 37°56' W 008°51'0 0.0
2016-May-21 09:33N 37°56' W 008°51'0 0.0
2016-May-21 08:33N 37°56' W 008°51'2 1.9
2016-May-21 07:33N 37°54' W 008°50'1 1.0
2016-May-21 06:33N 37°54' W 008°52'0 0.0
2016-May-21 05:33N 37°54' W 008°52'0 0.1
2016-May-21 04:33N 37°54' W 008°52'0 0.0
2016-May-21 03:33N 37°54' W 008°52'0 0.0
2016-May-21 02:33N 37°54' W 008°52'0 0.1
2016-May-21 01:33N 37°54' W 008°52'0 0.1
2016-May-21 00:33N 37°54' W 008°52'0 0.0
2016-May-20 23:33N 37°54' W 008°52'0 0.0
2016-May-20 22:33N 37°54' W 008°52'0 0.0
2016-May-20 21:33N 37°54' W 008°52'4 4.3
2016-May-20 20:33N 37°54' W 008°57'8 8.2
2016-May-20 19:33N 37°52' W 009°07'8 8.2
2016-May-20 18:33N 37°52' W 009°17'1010.0
2016-May-20 17:33N 37°52' W 009°30'1212.3
2016-May-20 16:33N 37°53' W 009°46'1212.5
2016-May-20 15:33N 37°53' W 010°01'1312.6
2016-May-20 14:33N 37°53' W 010°17'1212.3
2016-May-20 13:33N 37°53' W 010°33'1312.6
2016-May-20 12:31N 37°54' W 010°50'712.5
2016-May-20 12:00N 37°48' W 010°54'3614.2 030 / 171019.0 5.4 1.017.015.416.5
2016-May-20 09:29N 37°54' W 011°38'4111.7
2016-May-20 06:00N 37°54' W 012°30'16113.4 360 / 111022.0 5.4 0.516.012.716.0
2016-May-19 18:00N 37°54' W 015°54'16113.4 350 / 71026.0 5.4 0.520.015.317.0
2016-May-19 06:00N 38°00' W 019°18'18513.8 360 / 51028.010.8 0.518.013.117.0
2016-May-18 16:33N 38°06' W 023°13'1413.6
2016-May-18 15:33N 38°06' W 023°30'1413.5
2016-May-18 14:33N 38°06' W 023°47'1313.4
2016-May-18 13:33N 38°06' W 024°04'1313.5
2016-May-18 12:34N 38°06' W 024°21'712.3
2016-May-18 12:00N 38°06' W 024°30'614.6 330 / 91029.0 2.2 0.519.517.217.0
2016-May-18 11:34N 38°06' W 024°38'1313.2
2016-May-18 10:33N 38°06' W 024°55'1313.3
2016-May-18 09:34N 38°07' W 025°12'1313.5
2016-May-18 08:34N 38°07' W 025°29'1413.8
2016-May-18 07:34N 38°07' W 025°46'1413.5
2016-May-18 06:34N 38°06' W 026°04'1313.2
2016-May-18 05:34N 38°07' W 026°20'1313.3
2016-May-18 04:33N 38°07' W 026°37'1313.1
2016-May-18 03:33N 38°08' W 026°54'1313.5
2016-May-18 02:33N 38°08' W 027°11'1413.5
2016-May-18 01:33N 38°07' W 027°28'1413.5
2016-May-18 00:33N 38°07' W 027°45'1313.3
2016-May-17 23:33N 38°06' W 028°02'1313.5
2016-May-17 22:33N 38°06' W 028°19'1413.7
2016-May-17 21:34N 38°05' W 028°37'1413.9
2016-May-17 20:33N 38°05' W 028°55'5814.3
2016-May-17 16:28N 38°03' W 030°09'1314.6
2016-May-17 15:33N 38°02' W 030°26'1614.9
2016-May-17 14:27N 38°01' W 030°46'3514.2
2016-May-17 12:00N 37°54' W 031°30'9515.8 280 / 101032.010.8 0.521.016.4
2016-May-17 06:00N 37°48' W 033°30'3715.3 1032.010.8 1.517.013.718.0
2016-May-17 03:33N 37°48' W 034°17'1515.0
2016-May-17 02:33N 37°47' W 034°36'1514.7
2016-May-17 01:33N 37°46' W 034°55'1515.4
2016-May-17 00:33N 37°44' W 035°14'814.1
2016-May-17 00:00N 37°42' W 035°24'8614.4 230 / 101033.010.8 1.018.014.818.8
2016-May-16 18:00N 37°30' W 037°12'8714.4 270 / 121031.010.8 1.522.017.519.0
2016-May-16 12:00N 37°18' W 039°00'   220 / 141030.010.8 1.021.016.419.5

Dump ship's entire track history